Time;durP1;ratioP1;P1;durP2;ratioP2;P2;SDS_P1;SDS_P2;PMS_P1;PMS_P2;Temp;Humidity;BMP_temperature;BMP_pressure;BME280_temperature;BME280_humidity;BME280_pressure;Samples;Min_cycle;Max_cycle;Signal;HPM_P1;HPM_P2
2022/04/07 00:01:08;;;;;;;6.43;4.72;;;;;;;5.44;65.84;95822.66;5113470;28;20161;-63
2022/04/07 00:03:33;;;;;;;6.72;4.80;;;;;;;5.38;65.78;95820.25;5113473;28;20087;-63
2022/04/07 00:05:59;;;;;;;9.32;4.97;;;;;;;5.38;65.84;95818.50;5113455;28;20103;-63
2022/04/07 00:08:24;;;;;;;8.43;4.70;;;;;;;5.43;65.39;95816.66;5113384;28;20116;-63
2022/04/07 00:10:50;;;;;;;5.55;4.50;;;;;;;5.38;65.71;95812.47;5113439;28;20093;-63
2022/04/07 00:13:16;;;;;;;9.18;5.20;;;;;;;5.31;66.13;95807.47;5113473;28;20031;-63
2022/04/07 00:15:43;;;;;;;8.02;5.30;;;;;;;5.28;66.65;95812.75;5113345;28;20020;-64
2022/04/07 00:18:08;;;;;;;6.57;4.68;;;;;;;5.21;66.63;95808.59;5113241;28;20023;-65
2022/04/07 00:20:34;;;;;;;8.10;5.05;;;;;;;5.18;66.72;95800.94;5113018;28;20039;-63
2022/04/07 00:23:00;;;;;;;6.22;5.05;;;;;;;5.17;66.94;95804.41;5113100;28;20038;-63
2022/04/07 00:25:27;;;;;;;6.32;4.57;;;;;;;5.14;66.67;95802.75;5113255;28;20028;-63
2022/04/07 00:27:53;;;;;;;7.45;4.57;;;;;;;5.16;66.39;95795.78;5113274;28;20558;-63
2022/04/07 00:30:21;;;;;;;6.15;4.43;;;;;;;5.14;65.97;95792.38;5113113;28;20493;-64
2022/04/07 00:32:50;;;;;;;7.13;4.47;;;;;;;5.06;66.43;95783.97;5112996;28;20032;-64
2022/04/07 00:35:17;;;;;;;7.90;5.65;;;;;;;5.05;66.20;95790.03;5113148;28;20103;-63
2022/04/07 00:37:43;;;;;;;6.53;4.93;;;;;;;5.04;67.01;95786.63;5113073;28;20039;-63
2022/04/07 00:40:10;;;;;;;8.82;4.90;;;;;;;5.16;67.08;95787.16;5113265;28;20052;-63
2022/04/07 00:42:50;;;;;;;8.88;4.93;;;;;;;5.13;67.14;95779.47;5112929;28;20024;-63
2022/04/07 00:45:19;;;;;;;9.95;5.70;;;;;;;5.16;67.69;95780.22;5112877;28;20019;-63
2022/04/07 00:47:46;;;;;;;8.20;5.45;;;;;;;5.14;66.83;95781.16;5113084;28;20036;-63
2022/04/07 00:50:13;;;;;;;8.32;4.75;;;;;;;5.10;66.89;95780.41;5113007;28;20019;-63
2022/04/07 00:52:44;;;;;;;11.23;5.30;;;;;;;5.06;67.39;95771.84;5113144;28;20114;-63
2022/04/07 00:55:11;;;;;;;7.38;4.53;;;;;;;5.04;67.60;95770.19;5112933;28;20019;-63
2022/04/07 00:57:39;;;;;;;6.57;4.93;;;;;;;4.95;67.93;95760.94;5113308;28;20024;-63
2022/04/07 01:00:07;;;;;;;5.80;4.60;;;;;;;4.94;67.84;95754.06;5116525;28;20026;-63
2022/04/07 01:02:33;;;;;;;5.70;4.88;;;;;;;4.92;67.10;95751.53;5116362;28;20114;-63
2022/04/07 01:04:58;;;;;;;7.72;5.28;;;;;;;4.83;68.13;95750.91;5116507;28;20028;-63
2022/04/07 01:07:25;;;;;;;10.63;6.30;;;;;;;4.88;67.92;95746.47;5116306;28;20024;-63
2022/04/07 01:09:51;;;;;;;8.07;5.65;;;;;;;4.85;68.53;95741.38;5116486;28;20056;-63
2022/04/07 01:12:17;;;;;;;11.98;7.82;;;;;;;4.94;68.84;95751.47;5115066;28;20426;-63
2022/04/07 01:14:59;;;;;;;10.10;6.80;;;;;;;5.10;68.52;95748.44;5116535;28;20157;-63
2022/04/07 01:17:25;;;;;;;11.55;6.18;;;;;;;5.16;68.74;95743.94;5116447;28;20028;-63
2022/04/07 01:19:51;;;;;;;12.77;6.57;;;;;;;5.28;69.03;95736.69;5116247;28;20012;-63
2022/04/07 01:22:18;;;;;;;7.85;6.18;;;;;;;5.41;68.71;95740.59;5115922;28;20039;-63
2022/04/07 01:24:43;;;;;;;9.38;6.25;;;;;;;5.54;68.63;95740.25;5116163;28;20368;-63
2022/04/07 01:27:11;;;;;;;8.75;6.28;;;;;;;5.61;67.40;95733.97;5116201;28;20019;-63
2022/04/07 01:29:37;;;;;;;9.73;6.05;;;;;;;5.69;66.97;95741.50;5115959;27;20049;-63
2022/04/07 01:32:09;;;;;;;7.60;5.60;;;;;;;5.75;67.02;95745.66;5115929;28;20466;-63
2022/04/07 01:34:35;;;;;;;8.30;5.38;;;;;;;5.64;66.98;95735.59;5115922;28;20047;-63
2022/04/07 01:37:01;;;;;;;6.45;5.55;;;;;;;5.59;66.94;95725.34;5115836;28;20085;-63
2022/04/07 01:39:28;;;;;;;7.65;6.20;;;;;;;5.54;66.79;95716.88;5115897;27;20016;-64
2022/04/07 01:41:54;;;;;;;8.50;5.65;;;;;;;5.60;67.66;95719.25;5115703;28;20023;-63
2022/04/07 01:44:22;;;;;;;7.10;5.40;;;;;;;5.64;66.97;95715.69;5115509;28;20028;-63
2022/04/07 01:46:48;;;;;;;8.85;5.85;;;;;;;5.62;67.74;95725.28;5115617;28;20031;-63
2022/04/07 01:49:15;;;;;;;7.47;5.43;;;;;;;5.64;67.76;95720.88;5115660;28;20028;-63
2022/04/07 01:51:42;;;;;;;9.80;6.40;;;;;;;5.64;66.91;95726.09;5115610;28;20020;-63
2022/04/07 01:54:11;;;;;;;8.38;5.75;;;;;;;5.60;67.99;95721.03;5115460;28;20397;-64
2022/04/07 01:56:39;;;;;;;12.95;5.78;;;;;;;5.63;67.64;95720.94;5115433;28;20057;-64
2022/04/07 01:59:07;;;;;;;9.85;6.25;;;;;;;5.54;68.01;95704.75;5115456;28;20019;-63
2022/04/07 02:01:33;;;;;;;8.27;5.88;;;;;;;5.60;68.33;95701.09;5115334;28;20552;-64
2022/04/07 02:03:58;;;;;;;10.40;6.70;;;;;;;5.67;67.67;95687.06;5115331;28;20106;-64
2022/04/07 02:06:25;;;;;;;9.05;5.47;;;;;;;5.78;67.80;95683.28;5115311;28;20026;-63
2022/04/07 02:08:50;;;;;;;11.10;5.85;;;;;;;5.84;66.70;95690.81;5114710;28;20035;-63
2022/04/07 02:11:16;;;;;;;7.95;6.00;;;;;;;5.93;66.84;95689.72;5115342;28;20024;-63
2022/04/07 02:13:42;;;;;;;8.40;6.03;;;;;;;5.91;66.64;95684.56;5115226;28;20016;-63
2022/04/07 02:16:10;;;;;;;11.13;5.55;;;;;;;5.81;66.72;95675.38;5115134;28;20089;-64
2022/04/07 02:18:37;;;;;;;12.25;6.18;;;;;;;5.76;67.26;95664.28;5115039;28;20015;-63
2022/04/07 02:21:03;;;;;;;9.48;5.85;;;;;;;5.86;67.27;95654.44;5114767;28;20419;-64
2022/04/07 02:23:29;;;;;;;7.53;5.80;;;;;;;5.91;67.09;95647.34;5114927;28;20033;-63
2022/04/07 02:25:55;;;;;;;7.35;5.80;;;;;;;6.02;66.39;95642.66;5114907;28;20487;-63
2022/04/07 02:28:21;;;;;;;7.32;5.95;;;;;;;6.07;66.02;95639.91;5114920;28;20097;-64
2022/04/07 02:30:47;;;;;;;5.97;5.30;;;;;;;6.08;65.42;95631.22;5114743;28;20024;-64
2022/04/07 02:33:13;;;;;;;9.02;6.20;;;;;;;6.00;65.75;95628.03;5114675;28;20094;-64
2022/04/07 02:35:39;;;;;;;7.78;5.53;;;;;;;5.98;66.20;95630.69;5114740;28;20115;-64
2022/04/07 02:38:05;;;;;;;9.63;5.05;;;;;;;6.10;65.51;95616.44;5114657;28;20027;-63
2022/04/07 02:40:31;;;;;;;10.52;5.88;;;;;;;6.03;65.66;95615.81;5114663;28;20440;-64
2022/04/07 02:42:56;;;;;;;5.50;4.75;;;;;;;5.98;65.47;95606.44;5114414;28;20497;-63
2022/04/07 02:45:22;;;;;;;8.48;5.55;;;;;;;5.88;65.58;95604.19;5114563;28;20377;-63
2022/04/07 02:47:47;;;;;;;7.15;5.75;;;;;;;5.83;66.13;95600.88;5114496;28;20073;-64
2022/04/07 02:50:13;;;;;;;7.63;4.75;;;;;;;5.84;65.16;95597.38;5114447;28;20027;-64
2022/04/07 02:52:38;;;;;;;10.32;5.88;;;;;;;5.77;65.02;95594.16;5114262;28;20103;-64
2022/04/07 02:55:06;;;;;;;7.68;5.30;;;;;;;5.64;64.71;95582.50;5114262;28;20024;-64
2022/04/07 02:57:31;;;;;;;7.43;5.63;;;;;;;5.59;65.15;95592.19;5114347;28;20039;-64
2022/04/07 03:00:01;;;;;;;11.30;5.50;;;;;;;5.47;65.34;95573.53;5114364;28;20409;-64
2022/04/07 03:02:27;;;;;;;8.50;5.43;;;;;;;5.40;66.15;95577.25;5114011;28;20020;-64
2022/04/07 03:04:53;;;;;;;7.50;5.35;;;;;;;5.36;66.29;95578.25;5114156;28;20542;-64
2022/04/07 03:07:19;;;;;;;8.15;5.78;;;;;;;5.34;67.19;95582.63;5114028;28;20024;-63
2022/04/07 03:09:45;;;;;;;7.80;5.88;;;;;;;5.29;67.36;95570.66;5114086;28;20028;-64
2022/04/07 03:12:13;;;;;;;7.82;5.75;;;;;;;5.45;67.05;95580.53;5114138;28;20015;-64
2022/04/07 03:14:39;;;;;;;6.90;5.40;;;;;;;5.52;66.68;95578.56;5114108;28;20397;-63
2022/04/07 03:17:05;;;;;;;6.90;5.53;;;;;;;5.50;65.82;95586.41;5113894;28;20020;-63
2022/04/07 03:19:31;;;;;;;6.32;4.88;;;;;;;5.53;65.58;95604.47;5113793;28;20030;-64
2022/04/07 03:21:57;;;;;;;6.80;5.15;;;;;;;5.48;65.53;95606.34;5112962;28;20063;-64
2022/04/07 03:24:24;;;;;;;8.93;5.60;;;;;;;5.44;65.39;95589.19;5113747;28;20022;-63
2022/04/07 03:26:50;;;;;;;8.48;5.60;;;;;;;5.25;65.74;95581.19;5113775;28;20106;-64
2022/04/07 03:29:17;;;;;;;8.00;5.55;;;;;;;5.18;66.49;95559.78;5113767;28;20038;-64
2022/04/07 03:31:42;;;;;;;5.95;4.70;;;;;;;5.08;66.66;95551.44;5113763;28;20015;-64
2022/04/07 03:34:08;;;;;;;8.45;5.80;;;;;;;4.98;66.52;95550.91;5113784;28;20370;-64
2022/04/07 03:36:33;;;;;;;8.98;5.20;;;;;;;4.85;66.73;95523.69;5113650;28;20027;-63
2022/04/07 03:38:59;;;;;;;7.07;5.13;;;;;;;4.63;68.09;95517.41;5113691;28;20020;-64
2022/04/07 03:41:25;;;;;;;8.82;5.82;;;;;;;4.62;68.78;95514.88;5113614;28;20030;-64
2022/04/07 03:43:50;;;;;;;8.98;5.57;;;;;;;4.68;68.59;95499.13;5113540;28;20035;-63
2022/04/07 03:46:21;;;;;;;9.05;5.97;;;;;;;4.67;68.80;95507.81;5113534;28;20044;-64
2022/04/07 03:48:48;;;;;;;5.07;4.43;;;;;;;4.73;68.99;95515.38;5113620;28;20043;-63
2022/04/07 03:51:14;;;;;;;8.20;5.55;;;;;;;4.90;68.47;95509.66;5113467;28;20038;-64
2022/04/07 03:53:39;;;;;;;5.70;5.05;;;;;;;5.08;67.78;95522.09;5113407;28;20016;-64
2022/04/07 03:56:05;;;;;;;7.63;4.85;;;;;;;5.06;67.59;95525.56;5113542;28;20044;-64
2022/04/07 03:58:30;;;;;;;7.47;5.38;;;;;;;5.06;66.94;95528.16;5113506;28;20016;-64
2022/04/07 04:00:57;;;;;;;9.65;5.28;;;;;;;5.08;67.07;95535.06;5113485;28;20026;-63
2022/04/07 04:03:23;;;;;;;7.60;5.40;;;;;;;4.95;67.38;95526.81;5113206;28;20440;-63
2022/04/07 04:05:48;;;;;;;9.82;4.85;;;;;;;4.97;67.25;95533.63;5113309;28;20054;-63
2022/04/07 04:08:14;;;;;;;7.38;4.80;;;;;;;4.89;67.17;95531.31;5113430;28;20460;-64
2022/04/07 04:10:39;;;;;;;7.97;4.93;;;;;;;4.89;67.90;95530.44;5113401;28;20020;-64
2022/04/07 04:13:05;;;;;;;5.57;4.93;;;;;;;4.93;68.22;95529.44;5113398;28;20020;-63
2022/04/07 04:15:31;;;;;;;7.50;4.97;;;;;;;4.98;67.74;95524.13;5113302;28;20106;-64
2022/04/07 04:17:56;;;;;;;8.52;6.13;;;;;;;5.06;67.31;95520.38;5113316;28;20016;-64
2022/04/07 04:20:22;;;;;;;8.07;5.80;;;;;;;5.18;67.77;95526.09;5113040;28;20405;-64
2022/04/07 04:22:48;;;;;;;8.30;5.85;;;;;;;5.21;67.60;95528.56;5111982;28;20065;-63
2022/04/07 04:25:13;;;;;;;6.55;4.70;;;;;;;5.18;68.20;95531.28;5113250;28;20039;-63
2022/04/07 04:27:40;;;;;;;9.25;5.53;;;;;;;5.29;68.10;95523.13;5113117;28;20022;-64
2022/04/07 04:30:07;;;;;;;7.85;5.63;;;;;;;5.44;67.66;95516.56;5113117;28;20473;-63
2022/04/07 04:32:32;;;;;;;5.78;4.88;;;;;;;5.59;67.48;95496.19;5115147;28;20027;-64
2022/04/07 04:34:58;;;;;;;8.27;5.45;;;;;;;5.72;67.55;95496.63;5117139;28;20024;-64
2022/04/07 04:37:26;;;;;;;4.60;3.92;;;;;;;5.86;67.32;95494.38;5115781;28;20506;-64
2022/04/07 04:39:53;;;;;;;5.60;4.32;;;;;;;6.05;66.88;95483.38;5116900;27;20031;-64
2022/04/07 04:42:20;;;;;;;7.97;5.40;;;;;;;6.15;66.57;95463.94;5116841;28;20046;-64
2022/04/07 04:44:46;;;;;;;9.40;5.88;;;;;;;6.33;65.84;95464.13;5116815;28;20053;-63
2022/04/07 04:47:12;;;;;;;8.25;5.72;;;;;;;6.59;66.16;95449.28;5116866;28;20019;-64
2022/04/07 04:49:41;;;;;;;7.80;4.63;;;;;;;6.82;64.32;95440.56;5116734;28;20026;-64
2022/04/07 04:52:11;;;;;;;7.30;5.28;;;;;;;7.07;61.51;95442.16;5116744;28;20036;-64
2022/04/07 04:54:37;;;;;;;8.38;3.70;;;;;;;7.33;60.52;95440.22;5116749;28;20439;-64
2022/04/07 04:57:03;;;;;;;6.57;4.90;;;;;;;7.54;60.59;95452.34;5116712;28;20020;-64
2022/04/07 04:59:29;;;;;;;6.22;5.20;;;;;;;7.65;60.12;95468.34;5116596;28;20123;-64
2022/04/07 05:01:55;;;;;;;6.85;4.50;;;;;;;7.71;63.35;95473.28;5116494;28;20016;-64
2022/04/07 05:04:20;;;;;;;12.80;5.05;;;;;;;7.70;63.35;95473.34;5116326;28;20026;-64
2022/04/07 05:06:46;;;;;;;7.15;5.25;;;;;;;7.76;62.15;95462.69;5116486;28;20468;-64
2022/04/07 05:09:11;;;;;;;6.60;5.35;;;;;;;7.85;62.30;95474.44;5116390;28;20362;-64
2022/04/07 05:11:37;;;;;;;9.95;5.65;;;;;;;7.86;59.03;95463.13;5116529;28;20047;-64
2022/04/07 05:14:02;;;;;;;8.73;5.93;;;;;;;7.91;59.99;95453.34;5116339;28;20027;-63
2022/04/07 05:16:28;;;;;;;16.65;5.72;;;;;;;7.90;57.20;95448.19;5116286;28;20026;-64
2022/04/07 05:18:54;;;;;;;10.88;5.40;;;;;;;8.08;55.57;95451.75;5116254;28;20024;-63
2022/04/07 05:21:19;;;;;;;9.65;5.60;;;;;;;8.28;59.69;95452.59;5114680;28;20044;-64
2022/04/07 05:23:45;;;;;;;12.45;5.13;;;;;;;8.45;56.74;95434.41;5116054;28;20035;-63
2022/04/07 05:26:14;;;;;;;10.52;4.50;;;;;;;8.58;55.78;95429.47;5116109;28;20492;-64
2022/04/07 05:28:40;;;;;;;6.35;5.50;;;;;;;8.74;58.59;95427.91;5116135;28;20028;-64
2022/04/07 05:31:06;;;;;;;8.75;5.28;;;;;;;8.78;54.96;95427.69;5116080;28;20112;-64
2022/04/07 05:33:32;;;;;;;16.42;5.38;;;;;;;8.91;53.24;95409.66;5115962;28;20493;-64
2022/04/07 05:35:58;;;;;;;8.27;5.18;;;;;;;9.10;55.76;95398.31;5115893;28;20068;-63
2022/04/07 05:38:24;;;;;;;8.13;5.15;;;;;;;9.37;51.57;95404.81;5115809;28;20031;-64
2022/04/07 05:40:49;;;;;;;12.20;5.90;;;;;;;9.58;52.33;95410.69;5115764;28;20028;-64
2022/04/07 05:43:15;;;;;;;8.75;5.60;;;;;;;9.80;51.06;95414.78;5114886;28;20431;-64
2022/04/07 05:45:42;;;;;;;7.90;5.43;;;;;;;10.02;51.60;95414.47;5115602;28;20024;-64
2022/04/07 05:48:10;;;;;;;7.95;5.03;;;;;;;10.28;52.06;95416.59;5115634;28;20016;-64
2022/04/07 05:50:35;;;;;;;8.88;5.20;;;;;;;10.64;48.07;95415.53;5115613;28;20035;-64
2022/04/07 05:53:01;;;;;;;11.07;5.25;;;;;;;11.01;48.67;95409.13;5115539;28;20030;-64
2022/04/07 05:55:26;;;;;;;10.05;5.60;;;;;;;11.44;46.66;95416.25;5115571;28;20051;-64
2022/04/07 05:57:52;;;;;;;10.18;5.72;;;;;;;11.77;46.85;95407.25;5115377;28;20362;-64
2022/04/07 06:00:18;;;;;;;10.13;4.70;;;;;;;12.04;43.84;95396.03;5115449;28;20051;-64
2022/04/07 06:02:45;;;;;;;8.10;5.00;;;;;;;12.23;44.94;95390.53;5115311;28;20433;-64
2022/04/07 06:05:16;;;;;;;7.05;4.68;;;;;;;12.28;41.65;95387.59;5115350;28;20019;-64
2022/04/07 06:07:42;;;;;;;;;;;;;;;12.22;41.72;95380.13;5115796;28;20026;-63
2022/04/07 06:10:08;;;;;;;10.98;4.18;;;;;;;12.10;41.02;95379.13;5115235;28;19915;-63
2022/04/07 06:12:33;;;;;;;8.93;4.53;;;;;;;12.15;41.73;95384.06;5115195;28;20102;-63
2022/04/07 06:14:59;;;;;;;8.50;4.93;;;;;;;12.41;40.96;95390.28;5115158;28;20059;-64
2022/04/07 06:17:47;;;;;;;10.15;4.88;;;;;;;12.82;41.21;95385.09;5115123;28;20065;-64
2022/04/07 06:20:13;;;;;;;9.57;5.00;;;;;;;13.10;40.08;95364.88;5115279;28;20081;-64
2022/04/07 06:22:41;;;;;;;8.63;5.07;;;;;;;13.41;39.29;95341.81;5114750;28;20043;-64
2022/04/07 06:25:07;;;;;;;9.90;4.25;;;;;;;13.55;37.67;95340.03;5114938;28;20038;-64
2022/04/07 06:27:36;;;;;;;12.45;4.38;;;;;;;13.65;38.25;95330.56;5114838;28;20358;-64
2022/04/07 06:30:04;;;;;;;10.73;4.22;;;;;;;13.65;37.31;95335.81;5114878;28;20077;-64
2022/04/07 06:32:29;;;;;;;5.95;4.40;;;;;;;13.66;37.30;95326.16;5114763;28;20047;-64
2022/04/07 06:34:55;;;;;;;7.60;4.78;;;;;;;13.87;35.68;95324.66;5114787;28;20172;-64
2022/04/07 06:37:20;;;;;;;5.38;4.72;;;;;;;13.92;35.49;95324.31;5114677;27;20019;-64
2022/04/07 06:39:46;;;;;;;10.80;4.72;;;;;;;13.58;35.87;95316.19;5114642;28;20028;-64
2022/04/07 06:42:11;;;;;;;6.20;4.20;;;;;;;13.43;36.46;95308.41;5114548;28;20049;-64
2022/04/07 06:44:37;;;;;;;8.15;4.80;;;;;;;13.34;36.56;95317.72;5114618;28;20114;-64
2022/04/07 06:47:02;;;;;;;7.88;4.53;;;;;;;13.20;36.88;95317.84;5114509;28;20015;-64
2022/04/07 06:49:28;;;;;;;7.60;4.47;;;;;;;13.11;37.37;95320.16;5114612;27;20035;-64
2022/04/07 06:51:53;;;;;;;6.10;4.00;;;;;;;12.92;37.00;95324.97;5114439;28;20026;-64
2022/04/07 06:54:21;;;;;;;10.23;4.45;;;;;;;12.84;36.30;95326.31;5114258;28;20027;-64
2022/04/07 06:56:46;;;;;;;9.10;4.25;;;;;;;12.77;36.35;95318.00;5114348;27;20028;-64
2022/04/07 06:59:12;;;;;;;10.57;4.63;;;;;;;12.76;36.03;95297.97;5114203;28;20496;-64
2022/04/07 07:01:38;;;;;;;9.18;4.60;;;;;;;12.72;35.86;95296.50;5114224;28;20015;-64
2022/04/07 07:04:04;;;;;;;7.18;4.93;;;;;;;12.48;35.46;95296.31;5114065;28;20024;-64
2022/04/07 07:06:30;;;;;;;7.10;4.05;;;;;;;12.34;36.23;95300.69;5114097;28;20031;-64
2022/04/07 07:08:55;;;;;;;7.85;5.15;;;;;;;12.30;38.34;95311.47;5114160;28;20020;-64
2022/04/07 07:11:21;;;;;;;7.10;5.18;;;;;;;12.17;37.98;95304.41;5114104;28;20457;-65
2022/04/07 07:13:46;;;;;;;6.20;4.63;;;;;;;12.15;38.67;95305.41;5114146;28;20031;-62
2022/04/07 07:16:12;;;;;;;8.98;4.72;;;;;;;12.08;39.40;95299.75;5114045;28;20031;-64
2022/04/07 07:18:38;;;;;;;7.65;5.32;;;;;;;11.92;42.11;95303.28;5113921;28;20011;-64
2022/04/07 07:21:05;;;;;;;6.07;5.00;;;;;;;11.93;40.27;95302.38;5113555;28;20047;-64
2022/04/07 07:23:32;;;;;;;9.88;5.72;;;;;;;11.86;40.06;95295.84;5113877;28;20047;-64
2022/04/07 07:25:58;;;;;;;10.65;5.38;;;;;;;12.09;39.90;95286.53;5113790;28;20397;-65
2022/04/07 07:28:23;;;;;;;11.27;6.25;;;;;;;12.30;40.15;95280.00;5113814;28;20015;-64
2022/04/07 07:30:49;;;;;;;11.90;6.32;;;;;;;12.33;39.56;95264.91;5113810;28;20534;-64
2022/04/07 07:33:15;;;;;;;11.18;5.60;;;;;;;12.17;38.16;95272.09;5113790;28;20047;-64
2022/04/07 07:35:42;;;;;;;8.85;5.55;;;;;;;12.04;40.96;95269.41;5113638;28;20023;-64
2022/04/07 07:38:08;;;;;;;12.75;5.97;;;;;;;12.03;39.15;95250.22;5113756;28;20377;-64
2022/04/07 07:40:34;;;;;;;10.15;5.18;;;;;;;12.12;37.69;95261.91;5113703;28;20050;-64
2022/04/07 07:43:01;;;;;;;11.90;5.07;;;;;;;12.13;37.67;95259.19;5113510;28;20384;-64
2022/04/07 07:45:29;;;;;;;11.68;5.90;;;;;;;12.06;37.79;95251.78;5113553;28;20072;-64
2022/04/07 07:47:54;;;;;;;10.70;5.60;;;;;;;12.04;37.49;95248.44;5113503;28;20023;-64
2022/04/07 07:50:21;;;;;;;7.75;5.80;;;;;;;11.96;37.65;95243.69;5113628;28;20027;-64
2022/04/07 07:52:47;;;;;;;11.00;5.38;;;;;;;12.15;37.91;95243.38;5113522;28;20023;-64
2022/04/07 07:55:12;;;;;;;12.07;5.53;;;;;;;12.31;37.89;95239.75;5113349;28;20539;-64
2022/04/07 07:57:38;;;;;;;14.05;5.20;;;;;;;12.35;36.95;95233.34;5113495;28;20027;-64
2022/04/07 08:00:08;;;;;;;9.90;4.97;;;;;;;12.34;37.52;95222.00;5113452;28;20040;-64
2022/04/07 08:02:34;;;;;;;10.00;5.60;;;;;;;12.25;37.75;95225.25;5113350;28;20027;-64
2022/04/07 08:05:01;;;;;;;9.02;5.15;;;;;;;12.24;37.49;95210.47;5113374;28;20016;-64
2022/04/07 08:07:27;;;;;;;12.93;5.10;;;;;;;12.29;36.79;95210.16;5115202;28;20055;-64
2022/04/07 08:09:57;;;;;;;7.22;5.15;;;;;;;12.33;38.17;95209.84;5117681;28;20485;-64
2022/04/07 08:12:24;;;;;;;7.90;4.75;;;;;;;12.43;36.94;95209.25;5117640;28;20055;-64
2022/04/07 08:14:49;;;;;;;7.97;5.22;;;;;;;12.52;36.37;95219.09;5117435;28;20019;-64
2022/04/07 08:17:16;;;;;;;7.93;4.53;;;;;;;12.65;36.62;95206.03;5117371;28;20089;-64
2022/04/07 08:19:42;;;;;;;7.05;4.78;;;;;;;12.75;38.01;95201.84;5117328;28;20042;-64
2022/04/07 08:22:08;;;;;;;7.60;5.03;;;;;;;12.89;36.33;95200.06;5117081;28;20482;-64
2022/04/07 08:24:34;;;;;;;10.55;5.80;;;;;;;12.68;36.68;95190.09;5117065;28;20036;-64
2022/04/07 08:27:01;;;;;;;12.93;6.20;;;;;;;12.62;36.35;95167.72;5117170;28;20043;-64
2022/04/07 08:29:27;;;;;;;11.55;5.70;;;;;;;12.72;36.45;95160.06;5117232;28;20077;-64
2022/04/07 08:31:53;;;;;;;13.65;5.50;;;;;;;12.75;36.19;95159.84;5117189;28;20015;-64
2022/04/07 08:34:19;;;;;;;12.23;6.53;;;;;;;12.77;36.89;95151.88;5117095;28;20099;-64
2022/04/07 08:36:45;;;;;;;12.23;5.68;;;;;;;13.08;36.87;95151.50;5117064;28;20019;-64
2022/04/07 08:39:11;;;;;;;8.90;5.50;;;;;;;13.32;36.86;95141.06;5117054;28;20051;-64
2022/04/07 08:41:39;;;;;;;12.98;6.68;;;;;;;13.21;37.14;95141.81;5116893;28;20059;-64
2022/04/07 08:44:05;;;;;;;11.23;5.60;;;;;;;13.08;36.37;95125.25;5116696;28;20027;-64
2022/04/07 08:46:32;;;;;;;12.27;6.30;;;;;;;13.36;36.94;95129.41;5116815;28;20080;-64
2022/04/07 08:49:01;;;;;;;9.45;6.30;;;;;;;13.73;36.63;95132.97;5116832;28;20018;-64
2022/04/07 08:51:28;;;;;;;7.55;5.47;;;;;;;13.77;35.98;95122.13;5116846;28;20024;-64
2022/04/07 08:53:54;;;;;;;10.70;6.30;;;;;;;13.64;35.99;95109.03;5116841;28;20103;-64
2022/04/07 08:56:20;;;;;;;8.70;5.80;;;;;;;13.71;37.32;95109.44;5116719;27;20511;-64
2022/04/07 08:58:45;;;;;;;13.70;5.82;;;;;;;14.07;40.53;95105.97;5116591;28;20389;-64
2022/04/07 09:01:11;;;;;;;8.65;5.30;;;;;;;14.70;36.42;95094.22;5116659;28;20019;-64
2022/04/07 09:03:37;;;;;;;10.95;5.38;;;;;;;15.19;37.28;95092.19;5116480;28;20031;-64
2022/04/07 09:06:03;;;;;;;9.13;6.00;;;;;;;15.73;35.44;95080.91;5116516;28;20020;-65
2022/04/07 09:08:33;;;;;;;8.80;6.07;;;;;;;16.24;34.24;95079.38;5116540;28;20098;-64
2022/04/07 09:11:00;;;;;;;14.88;5.80;;;;;;;16.52;34.35;95076.19;5116426;28;20488;-64
2022/04/07 09:13:35;;;;;;;13.75;5.72;;;;;;;16.93;34.85;95073.59;5116370;28;20024;-64
2022/04/07 09:16:03;;;;;;;8.50;5.72;;;;;;;17.45;32.53;95077.91;5116426;28;20015;-64
2022/04/07 09:18:34;;;;;;;11.18;5.88;;;;;;;17.57;33.83;95065.41;5115110;28;20020;-64
2022/04/07 09:20:59;;;;;;;10.40;5.77;;;;;;;17.62;33.04;95049.13;5116061;28;20188;-64
2022/04/07 09:23:25;;;;;;;7.95;5.55;;;;;;;17.67;31.73;95045.09;5116140;28;20502;-64
2022/04/07 09:25:50;;;;;;;7.20;5.75;;;;;;;17.65;30.91;95040.91;5116121;28;20028;-64
2022/04/07 09:28:26;;;;;;;15.80;5.85;;;;;;;17.29;32.68;95039.66;5116168;28;20182;-63
2022/04/07 09:30:52;;;;;;;9.00;5.50;;;;;;;17.42;34.58;95034.09;5116098;28;20030;-64
2022/04/07 09:33:21;;;;;;;9.80;5.53;;;;;;;17.60;30.84;95032.56;5115919;27;20028;-64
2022/04/07 09:36:10;;;;;;;9.63;6.07;;;;;;;17.20;31.35;95026.41;5115799;28;20473;-64
2022/04/07 09:38:37;;;;;;;8.93;5.53;;;;;;;16.67;31.33;95026.50;5115972;28;20344;-64
2022/04/07 09:41:04;;;;;;;12.27;5.93;;;;;;;16.65;32.33;95024.00;5116017;28;20022;-64
2022/04/07 09:43:49;;;;;;;10.65;5.25;;;;;;;16.63;32.31;95023.31;5115617;27;20489;-64
2022/04/07 09:46:20;;;;;;;12.95;5.88;;;;;;;16.63;33.55;95012.75;5115710;28;20023;-64
2022/04/07 09:49:11;;;;;;;7.15;5.28;;;;;;;16.72;31.66;95005.84;5115597;27;20011;-64
2022/04/07 09:51:46;;;;;;;12.48;5.47;;;;;;;17.11;34.18;94993.72;5115564;28;20039;-64
2022/04/07 09:54:16;;;;;;;17.27;9.52;;;;;;;17.46;35.18;94995.00;5115694;28;20035;-64
2022/04/07 09:56:49;;;;;;;10.57;5.33;;;;;;;17.72;30.69;94989.16;5115553;28;20035;-64
2022/04/07 09:59:17;;;;;;;9.88;5.65;;;;;;;17.85;29.94;94980.09;5115559;28;20100;-64
2022/04/07 10:01:43;;;;;;;12.65;6.18;;;;;;;18.06;33.11;94970.16;5115481;28;20027;-64
2022/04/07 10:04:09;;;;;;;8.73;4.97;;;;;;;18.16;29.33;94967.53;5115281;28;20481;-64
2022/04/07 10:06:37;;;;;;;9.63;4.60;;;;;;;18.34;30.13;94971.22;5115571;27;20027;-64
2022/04/07 10:09:09;;;;;;;9.18;4.60;;;;;;;18.25;29.65;94973.78;5115361;28;20016;-64
2022/04/07 10:11:36;;;;;;;8.38;5.10;;;;;;;18.00;29.84;94975.22;5115423;28;20401;-64
2022/04/07 10:14:03;;;;;;;10.63;4.60;;;;;;;17.33;32.30;94962.75;5115219;28;20478;-64
2022/04/07 10:16:30;;;;;;;7.55;4.88;;;;;;;17.20;30.95;94948.00;5115342;28;20373;-64
2022/04/07 10:19:20;;;;;;;11.27;5.20;;;;;;;17.00;31.86;94949.75;5115319;28;20030;-64
2022/04/07 10:22:19;;;;;;;9.65;4.95;;;;;;;16.92;33.27;94951.28;5114865;28;20062;-64
2022/04/07 10:24:53;;;;;;;17.48;5.30;;;;;;;17.00;32.83;94945.31;5114907;28;20541;-64
2022/04/07 10:27:29;;;;;;;13.90;6.10;;;;;;;16.89;33.84;94938.34;5115050;28;20027;-64
2022/04/07 10:30:05;;;;;;;10.40;5.53;;;;;;;16.72;33.38;94934.56;5114637;28;20111;-64
2022/04/07 10:32:38;;;;;;;7.70;5.22;;;;;;;16.60;33.54;94931.22;5114843;28;20073;-63
2022/04/07 10:35:04;;;;;;;9.73;5.28;;;;;;;16.61;33.69;94942.59;5114828;27;20023;-64
2022/04/07 10:37:42;;;;;;;10.50;4.90;;;;;;;16.57;33.32;94943.81;5114746;28;20031;-64
2022/04/07 10:40:48;;;;;;;10.65;4.90;;;;;;;16.36;34.37;94947.38;5114723;28;20035;-63
2022/04/07 10:43:14;;;;;;;17.67;4.22;;;;;;;16.13;36.14;94947.53;5114645;28;20081;-64
2022/04/07 10:45:42;;;;;;;8.75;4.45;;;;;;;16.19;37.17;94943.56;5114710;28;20031;-64
2022/04/07 10:48:30;;;;;;;11.25;4.40;;;;;;;16.23;34.45;94950.25;5114481;28;20027;-64
2022/04/07 10:51:10;;;;;;;10.40;4.57;;;;;;;16.29;34.98;94941.81;5114550;28;20027;-64
2022/04/07 10:53:38;;;;;;;8.93;4.40;;;;;;;16.44;35.08;94917.69;5114550;27;20032;-64
2022/04/07 10:56:07;;;;;;;9.80;3.97;;;;;;;16.49;34.36;94910.19;5114416;28;20020;-64
2022/04/07 10:58:47;;;;;;;9.95;4.38;;;;;;;16.48;34.08;94888.25;5114193;28;20016;-64
2022/04/07 11:01:14;;;;;;;8.18;4.63;;;;;;;16.51;34.53;94874.81;5114143;27;20046;-64
2022/04/07 11:03:41;;;;;;;10.80;4.65;;;;;;;16.45;32.87;94859.50;5114119;28;20169;-64
2022/04/07 11:06:07;;;;;;;10.85;4.20;;;;;;;16.37;33.41;94873.38;5114093;28;20350;-63
2022/04/07 11:08:33;;;;;;;6.88;3.92;;;;;;;16.24;33.66;94884.16;5114145;28;20473;-64
2022/04/07 11:10:59;;;;;;;11.23;3.95;;;;;;;16.16;33.01;94892.75;5114049;28;20028;-64
2022/04/07 11:13:46;;;;;;;9.02;4.32;;;;;;;16.22;33.34;94885.28;5113969;28;20508;-64
2022/04/07 11:16:36;;;;;;;8.05;4.57;;;;;;;16.31;35.42;94876.53;5114133;28;20085;-64
2022/04/07 11:19:24;;;;;;;13.20;4.35;;;;;;;16.38;37.58;94863.66;5114096;28;20028;-64
2022/04/07 11:21:51;;;;;;;6.40;4.13;;;;;;;16.42;34.18;94850.06;5093882;28;20454;-64
2022/04/07 11:24:23;;;;;;;10.95;4.28;;;;;;;16.41;34.72;94829.91;5113715;28;20030;-64
2022/04/07 11:26:52;;;;;;;11.07;4.55;;;;;;;16.44;34.40;94843.81;5113821;28;20030;-64
2022/04/07 11:29:35;;;;;;;11.18;4.47;;;;;;;16.39;34.34;94857.41;5113777;28;20019;-64
2022/04/07 11:32:09;;;;;;;8.32;4.00;;;;;;;16.33;35.03;94877.25;5113818;28;20028;-64
2022/04/07 11:34:42;;;;;;;7.93;4.15;;;;;;;16.32;34.79;94872.09;5113719;28;20028;-64
2022/04/07 11:37:15;;;;;;;11.57;4.15;;;;;;;16.44;34.29;94857.00;5113642;28;20027;-64